Wellsville, Missouri
Current Conditions -  °F | °C
As of 2:54 PM on Thursday 20 Nov 2014 (Local Time) from KCOU Reporting Station
Overcast Overcast  
Wind Chill: 33°   Ceiling: 8500
Heat Index: 39°   Visibility: 10mi
Dew Point: 19°   Wind: 8mph
Humidity: 45%   Direction: 320°NW
Pressure: 30.2"   Gusts: NA
Location:  39.07°N, 91.57°W
Report Text: KCOU 202054Z 32007KT 10SM OVC085 04/M07 A3020 RMK AO2 SLP234 T00391072 56013
Loading
Personal Weather Stations






























Interactive Weather Map New forecast layout! Learn more

10-Day Weather Forecast

Advertisements
Track Severe Weather on mobile